Indian Lake Estates, Florida
Current Conditions -  °F | °C
As of 2:50 PM on Thursday 29 Jan 2015 (Local Time) from KBOW Reporting Station
Clear Clear  
Wind Chill: 68°   Ceiling: Unl
Heat Index: 68°   Visibility: 10mi
Dew Point: 45°   Wind: 8mph
Humidity: 43%   Direction: 100°E
Pressure: 30.23"   Gusts: NA
Location:  27.81°N, 81.38°W
Report Text: KBOW 291950Z 10007KT 10SM SKC 20/07 A3023
Loading
Personal Weather Stations






























Interactive Weather Map New forecast layout! Learn more

10-Day Weather Forecast

Advertisements
Track Severe Weather on mobile